sensor_id;sensor_type;location;lat;lon;timestamp;temperature;humidity
11700;DHT22;5906;51.660;6.674;2024-03-06T00:00:14;6.60;97.80
11700;DHT22;5906;51.660;6.674;2024-03-06T00:02:41;6.60;97.80
11700;DHT22;5906;51.660;6.674;2024-03-06T00:05:08;6.70;97.70
11700;DHT22;5906;51.660;6.674;2024-03-06T00:07:36;6.70;97.80
11700;DHT22;5906;51.660;6.674;2024-03-06T00:10:03;6.70;97.80
11700;DHT22;5906;51.660;6.674;2024-03-06T00:12:32;6.60;97.80
11700;DHT22;5906;51.660;6.674;2024-03-06T00:14:59;6.70;97.80
11700;DHT22;5906;51.660;6.674;2024-03-06T00:17:27;6.70;97.70
11700;DHT22;5906;51.660;6.674;2024-03-06T00:19:54;6.70;97.80
11700;DHT22;5906;51.660;6.674;2024-03-06T00:22:21;6.70;97.80
11700;DHT22;5906;51.660;6.674;2024-03-06T00:24:50;6.70;97.90
11700;DHT22;5906;51.660;6.674;2024-03-06T00:27:17;6.60;97.90
11700;DHT22;5906;51.660;6.674;2024-03-06T00:29:44;6.60;97.80
11700;DHT22;5906;51.660;6.674;2024-03-06T00:36:02;6.70;98.10
11700;DHT22;5906;51.660;6.674;2024-03-06T00:38:29;6.60;97.60
11700;DHT22;5906;51.660;6.674;2024-03-06T00:40:55;6.50;97.40
11700;DHT22;5906;51.660;6.674;2024-03-06T00:43:25;6.50;97.40
11700;DHT22;5906;51.660;6.674;2024-03-06T00:45:52;6.40;97.30
11700;DHT22;5906;51.660;6.674;2024-03-06T00:48:19;6.30;97.10
11700;DHT22;5906;51.660;6.674;2024-03-06T00:50:49;6.30;97.00
11700;DHT22;5906;51.660;6.674;2024-03-06T00:53:15;6.20;96.90
11700;DHT22;5906;51.660;6.674;2024-03-06T00:55:42;6.10;97.00
11700;DHT22;5906;51.660;6.674;2024-03-06T00:58:09;6.10;97.00
11700;DHT22;5906;51.660;6.674;2024-03-06T01:00:37;5.90;96.70
11700;DHT22;5906;51.660;6.674;2024-03-06T01:03:05;5.90;96.80
11700;DHT22;5906;51.660;6.674;2024-03-06T01:05:32;5.80;96.80
11700;DHT22;5906;51.660;6.674;2024-03-06T01:07:59;5.80;96.90
11700;DHT22;5906;51.660;6.674;2024-03-06T01:10:27;5.70;97.00
11700;DHT22;5906;51.660;6.674;2024-03-06T01:12:54;5.60;96.60
11700;DHT22;5906;51.660;6.674;2024-03-06T01:15:21;5.60;96.50
11700;DHT22;5906;51.660;6.674;2024-03-06T01:17:47;5.50;96.50
11700;DHT22;5906;51.660;6.674;2024-03-06T01:20:14;5.40;96.50
11700;DHT22;5906;51.660;6.674;2024-03-06T01:22:41;5.30;96.50
11700;DHT22;5906;51.660;6.674;2024-03-06T01:25:08;5.30;96.50
11700;DHT22;5906;51.660;6.674;2024-03-06T01:27:35;5.20;96.60
11700;DHT22;5906;51.660;6.674;2024-03-06T01:30:05;5.20;96.70
11700;DHT22;5906;51.660;6.674;2024-03-06T01:32:32;5.10;96.50
11700;DHT22;5906;51.660;6.674;2024-03-06T01:35:00;4.90;96.20
11700;DHT22;5906;51.660;6.674;2024-03-06T01:37:27;4.90;96.40
11700;DHT22;5906;51.660;6.674;2024-03-06T01:39:54;4.80;95.90
11700;DHT22;5906;51.660;6.674;2024-03-06T01:42:21;4.80;96.20
11700;DHT22;5906;51.660;6.674;2024-03-06T01:44:48;4.70;96.20
11700;DHT22;5906;51.660;6.674;2024-03-06T01:47:14;4.60;96.30
11700;DHT22;5906;51.660;6.674;2024-03-06T01:49:42;4.60;96.60
11700;DHT22;5906;51.660;6.674;2024-03-06T01:52:13;4.60;96.60
11700;DHT22;5906;51.660;6.674;2024-03-06T01:54:42;4.50;96.60
11700;DHT22;5906;51.660;6.674;2024-03-06T01:57:10;4.50;96.60
11700;DHT22;5906;51.660;6.674;2024-03-06T01:59:38;4.40;96.60
11700;DHT22;5906;51.660;6.674;2024-03-06T02:02:05;4.40;96.50
11700;DHT22;5906;51.660;6.674;2024-03-06T02:04:34;4.30;96.40
11700;DHT22;5906;51.660;6.674;2024-03-06T02:07:02;4.30;96.20
11700;DHT22;5906;51.660;6.674;2024-03-06T02:09:29;4.20;96.30
11700;DHT22;5906;51.660;6.674;2024-03-06T02:11:56;4.20;96.30
11700;DHT22;5906;51.660;6.674;2024-03-06T02:14:23;4.10;96.30
11700;DHT22;5906;51.660;6.674;2024-03-06T02:16:50;4.10;96.30
11700;DHT22;5906;51.660;6.674;2024-03-06T02:19:17;4.00;96.40
11700;DHT22;5906;51.660;6.674;2024-03-06T02:21:44;4.00;96.40
11700;DHT22;5906;51.660;6.674;2024-03-06T02:24:11;3.90;96.30
11700;DHT22;5906;51.660;6.674;2024-03-06T02:26:39;3.80;96.20
11700;DHT22;5906;51.660;6.674;2024-03-06T02:29:06;3.80;96.10
11700;DHT22;5906;51.660;6.674;2024-03-06T02:31:33;3.70;96.30
11700;DHT22;5906;51.660;6.674;2024-03-06T02:34:00;3.70;96.50
11700;DHT22;5906;51.660;6.674;2024-03-06T02:36:31;3.70;96.60
11700;DHT22;5906;51.660;6.674;2024-03-06T02:38:59;3.70;96.80
11700;DHT22;5906;51.660;6.674;2024-03-06T02:41:25;3.80;96.50
11700;DHT22;5906;51.660;6.674;2024-03-06T02:43:52;3.70;95.80
11700;DHT22;5906;51.660;6.674;2024-03-06T02:46:19;3.70;96.00
11700;DHT22;5906;51.660;6.674;2024-03-06T02:48:46;3.60;95.90
11700;DHT22;5906;51.660;6.674;2024-03-06T02:51:18;3.50;96.00
11700;DHT22;5906;51.660;6.674;2024-03-06T02:53:46;3.50;96.00
11700;DHT22;5906;51.660;6.674;2024-03-06T02:56:20;3.60;95.90
11700;DHT22;5906;51.660;6.674;2024-03-06T02:58:47;3.50;95.80
11700;DHT22;5906;51.660;6.674;2024-03-06T03:01:14;3.50;95.80
11700;DHT22;5906;51.660;6.674;2024-03-06T03:03:44;3.40;95.90
11700;DHT22;5906;51.660;6.674;2024-03-06T03:06:12;3.40;95.90
11700;DHT22;5906;51.660;6.674;2024-03-06T03:08:39;3.40;96.10
11700;DHT22;5906;51.660;6.674;2024-03-06T03:11:06;3.40;95.90
11700;DHT22;5906;51.660;6.674;2024-03-06T03:13:35;3.40;96.00
11700;DHT22;5906;51.660;6.674;2024-03-06T03:16:01;3.40;96.10
11700;DHT22;5906;51.660;6.674;2024-03-06T03:18:30;3.40;96.40
11700;DHT22;5906;51.660;6.674;2024-03-06T03:20:57;3.40;96.60
11700;DHT22;5906;51.660;6.674;2024-03-06T03:23:24;3.40;96.70
11700;DHT22;5906;51.660;6.674;2024-03-06T03:25:51;3.40;96.80
11700;DHT22;5906;51.660;6.674;2024-03-06T03:28:18;3.30;96.50
11700;DHT22;5906;51.660;6.674;2024-03-06T03:30:45;3.40;96.60
11700;DHT22;5906;51.660;6.674;2024-03-06T03:33:12;3.30;96.30
11700;DHT22;5906;51.660;6.674;2024-03-06T03:35:39;3.30;96.30
11700;DHT22;5906;51.660;6.674;2024-03-06T03:38:06;3.20;96.30
11700;DHT22;5906;51.660;6.674;2024-03-06T03:40:33;3.20;96.40
11700;DHT22;5906;51.660;6.674;2024-03-06T03:43:00;3.20;96.40
11700;DHT22;5906;51.660;6.674;2024-03-06T03:45:33;3.20;96.30
11700;DHT22;5906;51.660;6.674;2024-03-06T03:48:03;3.20;96.60
11700;DHT22;5906;51.660;6.674;2024-03-06T03:50:30;3.20;96.70
11700;DHT22;5906;51.660;6.674;2024-03-06T03:52:58;3.20;96.80
11700;DHT22;5906;51.660;6.674;2024-03-06T03:55:27;3.20;96.70
11700;DHT22;5906;51.660;6.674;2024-03-06T03:57:54;3.10;96.70
11700;DHT22;5906;51.660;6.674;2024-03-06T04:00:21;3.10;96.80
11700;DHT22;5906;51.660;6.674;2024-03-06T04:02:49;3.10;96.70
11700;DHT22;5906;51.660;6.674;2024-03-06T04:05:17;3.10;96.80
11700;DHT22;5906;51.660;6.674;2024-03-06T04:07:44;3.10;96.80
11700;DHT22;5906;51.660;6.674;2024-03-06T04:10:11;3.00;96.70
11700;DHT22;5906;51.660;6.674;2024-03-06T04:12:38;3.00;96.50
11700;DHT22;5906;51.660;6.674;2024-03-06T04:15:06;3.00;96.50
11700;DHT22;5906;51.660;6.674;2024-03-06T04:17:34;3.00;96.60
11700;DHT22;5906;51.660;6.674;2024-03-06T04:20:03;3.00;96.60
11700;DHT22;5906;51.660;6.674;2024-03-06T04:22:32;3.00;96.60
11700;DHT22;5906;51.660;6.674;2024-03-06T04:24:59;3.00;96.70
11700;DHT22;5906;51.660;6.674;2024-03-06T04:27:26;3.00;96.70
11700;DHT22;5906;51.660;6.674;2024-03-06T04:29:53;3.00;96.60
11700;DHT22;5906;51.660;6.674;2024-03-06T04:32:20;3.00;96.80
11700;DHT22;5906;51.660;6.674;2024-03-06T04:34:51;3.00;96.70
11700;DHT22;5906;51.660;6.674;2024-03-06T04:37:20;3.00;97.00
11700;DHT22;5906;51.660;6.674;2024-03-06T04:39:47;3.20;97.40
11700;DHT22;5906;51.660;6.674;2024-03-06T04:42:14;3.20;97.20
11700;DHT22;5906;51.660;6.674;2024-03-06T04:44:41;3.10;97.10
11700;DHT22;5906;51.660;6.674;2024-03-06T04:47:10;3.10;97.20
11700;DHT22;5906;51.660;6.674;2024-03-06T04:49:37;3.10;97.30
11700;DHT22;5906;51.660;6.674;2024-03-06T04:52:04;3.10;97.30
11700;DHT22;5906;51.660;6.674;2024-03-06T04:54:31;3.10;97.50
11700;DHT22;5906;51.660;6.674;2024-03-06T04:56:58;3.10;97.60
11700;DHT22;5906;51.660;6.674;2024-03-06T04:59:25;3.00;97.50
11700;DHT22;5906;51.660;6.674;2024-03-06T05:01:53;3.00;97.50
11700;DHT22;5906;51.660;6.674;2024-03-06T05:04:20;2.90;97.50
11700;DHT22;5906;51.660;6.674;2024-03-06T05:07:07;2.90;97.50
11700;DHT22;5906;51.660;6.674;2024-03-06T05:09:52;2.80;97.50
11700;DHT22;5906;51.660;6.674;2024-03-06T05:12:36;2.70;97.40
11700;DHT22;5906;51.660;6.674;2024-03-06T05:15:21;2.70;97.40
11700;DHT22;5906;51.660;6.674;2024-03-06T05:18:05;2.60;97.60
11700;DHT22;5906;51.660;6.674;2024-03-06T05:20:53;2.60;97.60
11700;DHT22;5906;51.660;6.674;2024-03-06T05:23:39;2.50;97.60
11700;DHT22;5906;51.660;6.674;2024-03-06T05:26:25;2.50;97.60
11700;DHT22;5906;51.660;6.674;2024-03-06T05:29:11;2.50;97.80
11700;DHT22;5906;51.660;6.674;2024-03-06T05:31:56;2.40;97.80
11700;DHT22;5906;51.660;6.674;2024-03-06T05:34:41;2.50;97.90
11700;DHT22;5906;51.660;6.674;2024-03-06T05:37:27;2.50;98.00
11700;DHT22;5906;51.660;6.674;2024-03-06T05:40:13;2.40;97.90
11700;DHT22;5906;51.660;6.674;2024-03-06T05:43:00;2.40;98.00
11700;DHT22;5906;51.660;6.674;2024-03-06T05:45:44;2.40;98.00
11700;DHT22;5906;51.660;6.674;2024-03-06T05:48:29;2.40;98.10
11700;DHT22;5906;51.660;6.674;2024-03-06T05:51:14;2.40;98.10
11700;DHT22;5906;51.660;6.674;2024-03-06T05:53:59;2.40;98.10
11700;DHT22;5906;51.660;6.674;2024-03-06T05:56:43;2.30;98.10
11700;DHT22;5906;51.660;6.674;2024-03-06T05:59:27;2.20;98.10
11700;DHT22;5906;51.660;6.674;2024-03-06T06:01:55;2.20;98.20
11700;DHT22;5906;51.660;6.674;2024-03-06T06:04:23;2.20;98.20
11700;DHT22;5906;51.660;6.674;2024-03-06T06:06:49;2.20;98.30
11700;DHT22;5906;51.660;6.674;2024-03-06T06:09:19;2.20;98.30
11700;DHT22;5906;51.660;6.674;2024-03-06T06:11:46;2.20;98.40
11700;DHT22;5906;51.660;6.674;2024-03-06T06:14:14;2.20;98.50
11700;DHT22;5906;51.660;6.674;2024-03-06T06:16:42;2.30;98.50
11700;DHT22;5906;51.660;6.674;2024-03-06T06:19:09;2.20;98.50
11700;DHT22;5906;51.660;6.674;2024-03-06T06:21:36;2.10;98.50
11700;DHT22;5906;51.660;6.674;2024-03-06T06:24:04;2.00;98.40
11700;DHT22;5906;51.660;6.674;2024-03-06T06:26:31;2.00;98.40
11700;DHT22;5906;51.660;6.674;2024-03-06T06:28:59;1.90;98.50
11700;DHT22;5906;51.660;6.674;2024-03-06T06:31:26;1.90;98.50
11700;DHT22;5906;51.660;6.674;2024-03-06T06:33:54;1.90;98.60
11700;DHT22;5906;51.660;6.674;2024-03-06T06:36:20;1.90;98.60
11700;DHT22;5906;51.660;6.674;2024-03-06T06:38:47;1.80;98.70
11700;DHT22;5906;51.660;6.674;2024-03-06T06:41:16;1.80;98.70
11700;DHT22;5906;51.660;6.674;2024-03-06T06:43:43;1.80;98.90
11700;DHT22;5906;51.660;6.674;2024-03-06T06:46:10;1.80;98.90
11700;DHT22;5906;51.660;6.674;2024-03-06T06:48:37;1.80;99.00
11700;DHT22;5906;51.660;6.674;2024-03-06T06:51:04;1.90;99.10
11700;DHT22;5906;51.660;6.674;2024-03-06T06:53:31;1.90;99.10
11700;DHT22;5906;51.660;6.674;2024-03-06T06:55:58;1.90;99.20
11700;DHT22;5906;51.660;6.674;2024-03-06T06:58:25;2.00;99.20
11700;DHT22;5906;51.660;6.674;2024-03-06T07:00:53;2.00;99.30
11700;DHT22;5906;51.660;6.674;2024-03-06T07:03:21;2.10;99.40
11700;DHT22;5906;51.660;6.674;2024-03-06T07:05:49;2.10;99.40
11700;DHT22;5906;51.660;6.674;2024-03-06T07:08:16;2.20;99.40
11700;DHT22;5906;51.660;6.674;2024-03-06T07:10:43;2.30;99.60
11700;DHT22;5906;51.660;6.674;2024-03-06T07:13:10;2.40;99.60
11700;DHT22;5906;51.660;6.674;2024-03-06T07:15:37;2.50;99.70
11700;DHT22;5906;51.660;6.674;2024-03-06T07:18:04;2.50;99.70
11700;DHT22;5906;51.660;6.674;2024-03-06T07:20:32;2.60;99.80
11700;DHT22;5906;51.660;6.674;2024-03-06T07:22:59;2.70;99.90
11700;DHT22;5906;51.660;6.674;2024-03-06T07:25:26;2.70;99.70
11700;DHT22;5906;51.660;6.674;2024-03-06T07:27:55;2.70;99.70
11700;DHT22;5906;51.660;6.674;2024-03-06T07:30:22;2.70;99.60
11700;DHT22;5906;51.660;6.674;2024-03-06T07:32:48;2.80;99.50
11700;DHT22;5906;51.660;6.674;2024-03-06T07:35:15;2.90;99.50
11700;DHT22;5906;51.660;6.674;2024-03-06T07:37:44;2.90;99.60
11700;DHT22;5906;51.660;6.674;2024-03-06T07:40:11;3.00;99.50
11700;DHT22;5906;51.660;6.674;2024-03-06T07:42:38;3.10;99.50
11700;DHT22;5906;51.660;6.674;2024-03-06T07:45:06;3.10;99.60
11700;DHT22;5906;51.660;6.674;2024-03-06T07:47:35;3.20;99.60
11700;DHT22;5906;51.660;6.674;2024-03-06T07:50:05;3.30;99.70
11700;DHT22;5906;51.660;6.674;2024-03-06T07:52:33;3.50;99.80
11700;DHT22;5906;51.660;6.674;2024-03-06T07:55:00;3.60;99.90
11700;DHT22;5906;51.660;6.674;2024-03-06T07:57:27;3.70;99.90
11700;DHT22;5906;51.660;6.674;2024-03-06T07:59:55;3.80;99.90
11700;DHT22;5906;51.660;6.674;2024-03-06T08:02:22;3.90;99.90
11700;DHT22;5906;51.660;6.674;2024-03-06T08:04:49;4.00;99.90
11700;DHT22;5906;51.660;6.674;2024-03-06T08:07:16;4.10;99.90
11700;DHT22;5906;51.660;6.674;2024-03-06T08:09:43;4.20;99.90
11700;DHT22;5906;51.660;6.674;2024-03-06T08:12:10;4.30;99.90
11700;DHT22;5906;51.660;6.674;2024-03-06T08:14:37;4.50;99.90
11700;DHT22;5906;51.660;6.674;2024-03-06T08:17:04;4.60;99.90
11700;DHT22;5906;51.660;6.674;2024-03-06T08:19:31;4.80;99.90
11700;DHT22;5906;51.660;6.674;2024-03-06T08:21:58;5.00;99.90
11700;DHT22;5906;51.660;6.674;2024-03-06T08:24:28;5.10;99.90
11700;DHT22;5906;51.660;6.674;2024-03-06T08:26:55;5.30;99.90
11700;DHT22;5906;51.660;6.674;2024-03-06T08:29:23;5.40;99.90
11700;DHT22;5906;51.660;6.674;2024-03-06T08:31:50;5.50;99.90
11700;DHT22;5906;51.660;6.674;2024-03-06T08:34:17;5.70;99.90
11700;DHT22;5906;51.660;6.674;2024-03-06T08:36:44;5.80;99.70
11700;DHT22;5906;51.660;6.674;2024-03-06T08:39:12;6.00;99.80
11700;DHT22;5906;51.660;6.674;2024-03-06T08:41:42;6.20;99.90
11700;DHT22;5906;51.660;6.674;2024-03-06T08:44:10;6.30;99.80
11700;DHT22;5906;51.660;6.674;2024-03-06T08:46:37;6.40;99.60
11700;DHT22;5906;51.660;6.674;2024-03-06T08:49:04;6.60;99.10
11700;DHT22;5906;51.660;6.674;2024-03-06T08:51:35;6.80;99.30
11700;DHT22;5906;51.660;6.674;2024-03-06T08:54:03;7.00;99.10
11700;DHT22;5906;51.660;6.674;2024-03-06T08:56:30;7.10;99.00
11700;DHT22;5906;51.660;6.674;2024-03-06T08:58:57;7.30;98.30
11700;DHT22;5906;51.660;6.674;2024-03-06T09:01:24;7.40;97.50
11700;DHT22;5906;51.660;6.674;2024-03-06T09:03:52;7.50;97.20
11700;DHT22;5906;51.660;6.674;2024-03-06T09:06:19;7.60;96.40
11700;DHT22;5906;51.660;6.674;2024-03-06T09:08:46;7.70;96.00
11700;DHT22;5906;51.660;6.674;2024-03-06T09:11:15;7.90;96.00
11700;DHT22;5906;51.660;6.674;2024-03-06T09:13:42;8.10;95.70
11700;DHT22;5906;51.660;6.674;2024-03-06T09:16:09;8.10;95.20
11700;DHT22;5906;51.660;6.674;2024-03-06T09:18:36;8.20;93.40
11700;DHT22;5906;51.660;6.674;2024-03-06T09:21:03;8.30;92.20
11700;DHT22;5906;51.660;6.674;2024-03-06T09:23:30;8.30;91.20
11700;DHT22;5906;51.660;6.674;2024-03-06T09:25:59;8.20;91.70
11700;DHT22;5906;51.660;6.674;2024-03-06T09:28:26;8.30;92.10
11700;DHT22;5906;51.660;6.674;2024-03-06T09:30:53;8.50;92.10
11700;DHT22;5906;51.660;6.674;2024-03-06T09:33:20;8.60;90.80
11700;DHT22;5906;51.660;6.674;2024-03-06T09:35:47;8.60;90.10
11700;DHT22;5906;51.660;6.674;2024-03-06T09:38:14;8.80;89.80
11700;DHT22;5906;51.660;6.674;2024-03-06T09:40:45;8.90;89.30
11700;DHT22;5906;51.660;6.674;2024-03-06T09:43:13;9.00;88.10
11700;DHT22;5906;51.660;6.674;2024-03-06T09:45:40;9.10;87.50
11700;DHT22;5906;51.660;6.674;2024-03-06T09:48:08;9.10;86.70
11700;DHT22;5906;51.660;6.674;2024-03-06T09:50:37;9.20;86.30
11700;DHT22;5906;51.660;6.674;2024-03-06T09:53:08;9.40;87.00
11700;DHT22;5906;51.660;6.674;2024-03-06T09:55:36;9.70;86.70
11700;DHT22;5906;51.660;6.674;2024-03-06T09:58:04;10.10;84.80
11700;DHT22;5906;51.660;6.674;2024-03-06T10:00:32;10.20;83.40
11700;DHT22;5906;51.660;6.674;2024-03-06T10:03:01;10.20;81.70
11700;DHT22;5906;51.660;6.674;2024-03-06T10:05:30;10.20;81.30
11700;DHT22;5906;51.660;6.674;2024-03-06T10:07:57;10.20;80.10
11700;DHT22;5906;51.660;6.674;2024-03-06T10:10:26;10.20;80.70
11700;DHT22;5906;51.660;6.674;2024-03-06T10:12:53;10.10;81.20
11700;DHT22;5906;51.660;6.674;2024-03-06T10:15:21;10.10;81.60
11700;DHT22;5906;51.660;6.674;2024-03-06T10:17:49;10.20;81.40
11700;DHT22;5906;51.660;6.674;2024-03-06T10:20:23;10.40;80.40
11700;DHT22;5906;51.660;6.674;2024-03-06T10:22:53;10.80;81.60
11700;DHT22;5906;51.660;6.674;2024-03-06T10:25:25;11.10;82.70
11700;DHT22;5906;51.660;6.674;2024-03-06T10:28:06;11.50;80.70
11700;DHT22;5906;51.660;6.674;2024-03-06T10:30:39;11.70;79.00
11700;DHT22;5906;51.660;6.674;2024-03-06T10:33:16;11.70;76.10
11700;DHT22;5906;51.660;6.674;2024-03-06T10:35:44;11.50;75.90
11700;DHT22;5906;51.660;6.674;2024-03-06T10:38:12;11.40;74.80
11700;DHT22;5906;51.660;6.674;2024-03-06T10:40:41;11.50;77.50
11700;DHT22;5906;51.660;6.674;2024-03-06T10:43:09;11.50;77.20
11700;DHT22;5906;51.660;6.674;2024-03-06T10:46:01;11.60;77.60
11700;DHT22;5906;51.660;6.674;2024-03-06T10:48:33;11.80;77.20
11700;DHT22;5906;51.660;6.674;2024-03-06T10:51:02;11.90;74.40
11700;DHT22;5906;51.660;6.674;2024-03-06T10:53:31;11.80;73.80
11700;DHT22;5906;51.660;6.674;2024-03-06T10:56:00;11.70;73.60
11700;DHT22;5906;51.660;6.674;2024-03-06T11:00:54;11.90;72.90
11700;DHT22;5906;51.660;6.674;2024-03-06T11:03:25;11.80;73.10
11700;DHT22;5906;51.660;6.674;2024-03-06T11:05:52;11.60;73.40
11700;DHT22;5906;51.660;6.674;2024-03-06T11:08:20;11.60;74.90
11700;DHT22;5906;51.660;6.674;2024-03-06T11:10:49;11.70;72.80
11700;DHT22;5906;51.660;6.674;2024-03-06T11:13:23;11.70;73.30
11700;DHT22;5906;51.660;6.674;2024-03-06T11:15:53;11.70;74.20
11700;DHT22;5906;51.660;6.674;2024-03-06T11:23:30;11.70;72.90
11700;DHT22;5906;51.660;6.674;2024-03-06T11:26:05;11.80;73.10
11700;DHT22;5906;51.660;6.674;2024-03-06T11:28:37;11.70;73.10
11700;DHT22;5906;51.660;6.674;2024-03-06T11:31:09;11.70;73.90
11700;DHT22;5906;51.660;6.674;2024-03-06T11:33:44;11.60;73.10
11700;DHT22;5906;51.660;6.674;2024-03-06T11:36:21;11.60;74.70
11700;DHT22;5906;51.660;6.674;2024-03-06T11:38:52;11.80;73.00
11700;DHT22;5906;51.660;6.674;2024-03-06T11:41:24;11.90;72.30
11700;DHT22;5906;51.660;6.674;2024-03-06T11:43:53;11.80;74.20
11700;DHT22;5906;51.660;6.674;2024-03-06T11:46:23;11.90;
11700;DHT22;5906;51.660;6.674;2024-03-06T11:49:16;12.00;73.10
11700;DHT22;5906;51.660;6.674;2024-03-06T11:51:56;12.20;72.70
11700;DHT22;5906;51.660;6.674;2024-03-06T11:54:24;12.10;70.20
11700;DHT22;5906;51.660;6.674;2024-03-06T11:56:55;12.10;71.40
11700;DHT22;5906;51.660;6.674;2024-03-06T11:59:24;12.20;72.50
11700;DHT22;5906;51.660;6.674;2024-03-06T12:01:52;12.10;72.50
11700;DHT22;5906;51.660;6.674;2024-03-06T12:04:20;12.00;71.60
11700;DHT22;5906;51.660;6.674;2024-03-06T12:06:50;11.80;73.10
11700;DHT22;5906;51.660;6.674;2024-03-06T12:09:17;11.70;72.50
11700;DHT22;5906;51.660;6.674;2024-03-06T12:11:44;11.70;73.10
11700;DHT22;5906;51.660;6.674;2024-03-06T12:14:19;11.60;73.70
11700;DHT22;5906;51.660;6.674;2024-03-06T12:16:58;11.70;73.60
11700;DHT22;5906;51.660;6.674;2024-03-06T12:19:31;11.80;72.70
11700;DHT22;5906;51.660;6.674;2024-03-06T12:22:04;11.80;71.90
11700;DHT22;5906;51.660;6.674;2024-03-06T12:24:31;11.60;72.20
11700;DHT22;5906;51.660;6.674;2024-03-06T12:27:04;11.40;73.10
11700;DHT22;5906;51.660;6.674;2024-03-06T12:29:32;11.30;73.20
11700;DHT22;5906;51.660;6.674;2024-03-06T12:32:04;11.10;73.80
11700;DHT22;5906;51.660;6.674;2024-03-06T12:34:31;11.10;73.80
11700;DHT22;5906;51.660;6.674;2024-03-06T12:37:08;11.20;74.80
11700;DHT22;5906;51.660;6.674;2024-03-06T12:39:36;11.20;74.00
11700;DHT22;5906;51.660;6.674;2024-03-06T12:42:07;11.20;73.50
11700;DHT22;5906;51.660;6.674;2024-03-06T12:44:34;11.20;74.10
11700;DHT22;5906;51.660;6.674;2024-03-06T12:47:01;11.20;72.80
11700;DHT22;5906;51.660;6.674;2024-03-06T12:49:28;11.20;73.30
11700;DHT22;5906;51.660;6.674;2024-03-06T12:51:55;11.20;73.70
11700;DHT22;5906;51.660;6.674;2024-03-06T12:54:22;11.20;73.00
11700;DHT22;5906;51.660;6.674;2024-03-06T12:56:52;11.10;72.60
11700;DHT22;5906;51.660;6.674;2024-03-06T12:59:19;11.20;71.50
11700;DHT22;5906;51.660;6.674;2024-03-06T13:01:46;11.20;69.60
11700;DHT22;5906;51.660;6.674;2024-03-06T13:04:14;11.10;69.80
11700;DHT22;5906;51.660;6.674;2024-03-06T13:06:41;11.20;69.90
11700;DHT22;5906;51.660;6.674;2024-03-06T13:09:07;11.20;68.80
11700;DHT22;5906;51.660;6.674;2024-03-06T13:11:34;11.20;68.40
11700;DHT22;5906;51.660;6.674;2024-03-06T13:14:01;11.20;68.80
11700;DHT22;5906;51.660;6.674;2024-03-06T13:16:29;11.30;70.10
11700;DHT22;5906;51.660;6.674;2024-03-06T13:18:55;11.40;66.90
11700;DHT22;5906;51.660;6.674;2024-03-06T13:21:23;11.50;68.50
11700;DHT22;5906;51.660;6.674;2024-03-06T13:23:51;11.70;67.50
11700;DHT22;5906;51.660;6.674;2024-03-06T13:26:17;12.00;65.30
11700;DHT22;5906;51.660;6.674;2024-03-06T13:28:47;12.10;65.60
11700;DHT22;5906;51.660;6.674;2024-03-06T13:31:16;12.20;62.90
11700;DHT22;5906;51.660;6.674;2024-03-06T13:33:43;12.30;62.70
11700;DHT22;5906;51.660;6.674;2024-03-06T13:36:10;12.30;62.70
11700;DHT22;5906;51.660;6.674;2024-03-06T13:38:37;12.30;63.30
11700;DHT22;5906;51.660;6.674;2024-03-06T13:41:06;12.50;60.90
11700;DHT22;5906;51.660;6.674;2024-03-06T13:43:33;12.60;60.40
11700;DHT22;5906;51.660;6.674;2024-03-06T13:46:00;12.80;59.60
11700;DHT22;5906;51.660;6.674;2024-03-06T13:48:27;12.80;59.80
11700;DHT22;5906;51.660;6.674;2024-03-06T13:50:54;12.90;59.30
11700;DHT22;5906;51.660;6.674;2024-03-06T13:53:21;12.90;60.10
11700;DHT22;5906;51.660;6.674;2024-03-06T13:55:48;12.80;58.30
11700;DHT22;5906;51.660;6.674;2024-03-06T13:58:15;12.80;59.60
11700;DHT22;5906;51.660;6.674;2024-03-06T14:00:42;12.80;58.10
11700;DHT22;5906;51.660;6.674;2024-03-06T14:03:09;13.00;57.00
11700;DHT22;5906;51.660;6.674;2024-03-06T14:05:38;13.00;57.70
11700;DHT22;5906;51.660;6.674;2024-03-06T14:08:06;13.00;58.60
11700;DHT22;5906;51.660;6.674;2024-03-06T14:10:34;13.00;59.70
11700;DHT22;5906;51.660;6.674;2024-03-06T14:13:04;13.00;59.60
11700;DHT22;5906;51.660;6.674;2024-03-06T14:15:32;13.00;59.60
11700;DHT22;5906;51.660;6.674;2024-03-06T14:18:03;13.00;58.40
11700;DHT22;5906;51.660;6.674;2024-03-06T14:20:31;13.00;58.70
11700;DHT22;5906;51.660;6.674;2024-03-06T14:22:58;13.00;60.20
11700;DHT22;5906;51.660;6.674;2024-03-06T14:29:54;13.20;58.20
11700;DHT22;5906;51.660;6.674;2024-03-06T14:37:06;13.30;60.20
11700;DHT22;5906;51.660;6.674;2024-03-06T14:40:37;13.20;60.00
11700;DHT22;5906;51.660;6.674;2024-03-06T14:43:22;13.30;59.50
11700;DHT22;5906;51.660;6.674;2024-03-06T14:46:11;13.20;58.00
11700;DHT22;5906;51.660;6.674;2024-03-06T14:49:44;13.00;56.90
11700;DHT22;5906;51.660;6.674;2024-03-06T14:53:14;12.90;57.40
11700;DHT22;5906;51.660;6.674;2024-03-06T14:55:54;12.70;57.10
11700;DHT22;5906;51.660;6.674;2024-03-06T14:59:24;12.60;57.60
11700;DHT22;5906;51.660;6.674;2024-03-06T15:01:51;12.50;57.40
11700;DHT22;5906;51.660;6.674;2024-03-06T15:04:19;12.50;58.10
11700;DHT22;5906;51.660;6.674;2024-03-06T15:06:48;12.60;58.90
11700;DHT22;5906;51.660;6.674;2024-03-06T15:09:20;12.70;59.40
11700;DHT22;5906;51.660;6.674;2024-03-06T15:11:50;12.70;59.10
11700;DHT22;5906;51.660;6.674;2024-03-06T15:14:19;12.80;59.50
11700;DHT22;5906;51.660;6.674;2024-03-06T15:16:48;12.90;60.00
11700;DHT22;5906;51.660;6.674;2024-03-06T15:19:15;13.00;57.90
11700;DHT22;5906;51.660;6.674;2024-03-06T15:21:43;12.90;57.20
11700;DHT22;5906;51.660;6.674;2024-03-06T15:24:10;12.90;58.80
11700;DHT22;5906;51.660;6.674;2024-03-06T15:26:40;12.70;59.60
11700;DHT22;5906;51.660;6.674;2024-03-06T15:29:07;12.50;60.90
11700;DHT22;5906;51.660;6.674;2024-03-06T15:31:37;12.40;61.90
11700;DHT22;5906;51.660;6.674;2024-03-06T15:34:04;12.30;61.90
11700;DHT22;5906;51.660;6.674;2024-03-06T15:36:31;12.30;61.60
11700;DHT22;5906;51.660;6.674;2024-03-06T15:38:58;12.20;62.60
11700;DHT22;5906;51.660;6.674;2024-03-06T15:41:26;12.20;62.80
11700;DHT22;5906;51.660;6.674;2024-03-06T15:43:53;12.10;62.70
11700;DHT22;5906;51.660;6.674;2024-03-06T15:46:21;12.20;62.40
11700;DHT22;5906;51.660;6.674;2024-03-06T15:48:49;12.10;63.00
11700;DHT22;5906;51.660;6.674;2024-03-06T15:51:16;12.10;63.00
11700;DHT22;5906;51.660;6.674;2024-03-06T15:53:43;12.00;63.60
11700;DHT22;5906;51.660;6.674;2024-03-06T15:56:11;11.90;64.10
11700;DHT22;5906;51.660;6.674;2024-03-06T16:01:16;11.80;62.90
11700;DHT22;5906;51.660;6.674;2024-03-06T16:03:43;11.70;63.40
11700;DHT22;5906;51.660;6.674;2024-03-06T16:06:12;11.60;63.90
11700;DHT22;5906;51.660;6.674;2024-03-06T16:08:45;11.60;64.60
11700;DHT22;5906;51.660;6.674;2024-03-06T16:11:12;11.50;63.60
11700;DHT22;5906;51.660;6.674;2024-03-06T16:13:40;11.50;62.90
11700;DHT22;5906;51.660;6.674;2024-03-06T16:16:07;11.50;63.00
11700;DHT22;5906;51.660;6.674;2024-03-06T16:18:35;11.40;63.30
11700;DHT22;5906;51.660;6.674;2024-03-06T16:21:26;11.30;64.50
11700;DHT22;5906;51.660;6.674;2024-03-06T16:23:53;11.30;64.90
11700;DHT22;5906;51.660;6.674;2024-03-06T16:26:20;11.10;65.10
11700;DHT22;5906;51.660;6.674;2024-03-06T16:28:47;11.10;65.70
11700;DHT22;5906;51.660;6.674;2024-03-06T16:31:17;11.10;65.80
11700;DHT22;5906;51.660;6.674;2024-03-06T16:33:46;11.00;66.60